sensor_id;sensor_type;location;lat;lon;timestamp;temperature;humidity
14154;DHT22;7157;53.144;7.570;2024-03-25T00:04:52;6.63;116.76
14154;DHT22;7157;53.144;7.570;2024-03-25T00:14:55;6.74;117.55
14154;DHT22;7157;53.144;7.570;2024-03-25T00:24:57;6.78;117.87
14154;DHT22;7157;53.144;7.570;2024-03-25T00:35:00;6.81;117.92
14154;DHT22;7157;53.144;7.570;2024-03-25T00:45:03;6.72;117.50
14154;DHT22;7157;53.144;7.570;2024-03-25T00:55:08;6.73;117.92
14154;DHT22;7157;53.144;7.570;2024-03-25T01:05:10;6.51;117.50
14154;DHT22;7157;53.144;7.570;2024-03-25T01:15:13;6.41;117.80
14154;DHT22;7157;53.144;7.570;2024-03-25T01:25:15;6.43;116.51
14154;DHT22;7157;53.144;7.570;2024-03-25T01:35:18;6.36;114.91
14154;DHT22;7157;53.144;7.570;2024-03-25T01:45:21;6.24;113.10
14154;DHT22;7157;53.144;7.570;2024-03-25T01:55:26;6.34;114.51
14154;DHT22;7157;53.144;7.570;2024-03-25T02:05:29;6.33;115.54
14154;DHT22;7157;53.144;7.570;2024-03-25T02:15:32;6.17;115.71
14154;DHT22;7157;53.144;7.570;2024-03-25T02:25:35;6.28;115.64
14154;DHT22;7157;53.144;7.570;2024-03-25T02:35:39;6.21;115.68
14154;DHT22;7157;53.144;7.570;2024-03-25T02:45:42;6.29;116.22
14154;DHT22;7157;53.144;7.570;2024-03-25T02:55:45;6.19;115.84
14154;DHT22;7157;53.144;7.570;2024-03-25T03:05:47;5.91;114.58
14154;DHT22;7157;53.144;7.570;2024-03-25T03:15:50;5.87;114.67
14154;DHT22;7157;53.144;7.570;2024-03-25T03:25:52;5.91;114.46
14154;DHT22;7157;53.144;7.570;2024-03-25T03:35:55;6.02;114.09
14154;DHT22;7157;53.144;7.570;2024-03-25T03:45:57;6.04;112.10
14154;DHT22;7157;53.144;7.570;2024-03-25T03:56:02;6.17;113.10
14154;DHT22;7157;53.144;7.570;2024-03-25T04:06:08;6.00;112.83
14154;DHT22;7157;53.144;7.570;2024-03-25T04:16:12;6.02;113.01
14154;DHT22;7157;53.144;7.570;2024-03-25T04:26:13;5.97;113.56
14154;DHT22;7157;53.144;7.570;2024-03-25T04:36:17;6.05;110.89
14154;DHT22;7157;53.144;7.570;2024-03-25T04:46:19;6.14;110.78
14154;DHT22;7157;53.144;7.570;2024-03-25T04:56:21;6.13;110.45
14154;DHT22;7157;53.144;7.570;2024-03-25T05:06:22;6.23;110.32
14154;DHT22;7157;53.144;7.570;2024-03-25T05:16:25;6.29;110.60
14154;DHT22;7157;53.144;7.570;2024-03-25T05:26:26;6.36;111.37
14154;DHT22;7157;53.144;7.570;2024-03-25T05:36:28;6.35;110.87
14154;DHT22;7157;53.144;7.570;2024-03-25T05:46:29;6.49;110.53
14154;DHT22;7157;53.144;7.570;2024-03-25T05:56:32;6.43;109.92
14154;DHT22;7157;53.144;7.570;2024-03-25T06:06:33;6.28;107.35
14154;DHT22;7157;53.144;7.570;2024-03-25T06:16:36;6.37;106.64
14154;DHT22;7157;53.144;7.570;2024-03-25T06:26:37;6.39;107.05
14154;DHT22;7157;53.144;7.570;2024-03-25T06:36:39;6.39;106.57
14154;DHT22;7157;53.144;7.570;2024-03-25T06:46:40;6.78;104.67
14154;DHT22;7157;53.144;7.570;2024-03-25T06:56:43;7.12;101.58
14154;DHT22;7157;53.144;7.570;2024-03-25T07:06:44;7.19;101.12
14154;DHT22;7157;53.144;7.570;2024-03-25T07:16:46;7.14;100.84
14154;DHT22;7157;53.144;7.570;2024-03-25T07:26:47;7.17;100.85
14154;DHT22;7157;53.144;7.570;2024-03-25T07:36:49;7.23;99.37
14154;DHT22;7157;53.144;7.570;2024-03-25T07:46:50;7.71;100.43
14154;DHT22;7157;53.144;7.570;2024-03-25T07:56:53;7.79;97.15
14154;DHT22;7157;53.144;7.570;2024-03-25T08:06:54;7.99;94.73
14154;DHT22;7157;53.144;7.570;2024-03-25T08:16:56;8.21;94.92
14154;DHT22;7157;53.144;7.570;2024-03-25T08:26:57;8.50;90.63
14154;DHT22;7157;53.144;7.570;2024-03-25T08:37:00;8.48;88.06
14154;DHT22;7157;53.144;7.570;2024-03-25T08:47:01;8.60;88.23
14154;DHT22;7157;53.144;7.570;2024-03-25T08:57:04;9.14;86.45
14154;DHT22;7157;53.144;7.570;2024-03-25T09:07:05;9.29;83.04
14154;DHT22;7157;53.144;7.570;2024-03-25T09:17:07;8.95;83.87
14154;DHT22;7157;53.144;7.570;2024-03-25T09:27:09;9.31;82.88
14154;DHT22;7157;53.144;7.570;2024-03-25T09:37:11;9.93;84.93
14154;DHT22;7157;53.144;7.570;2024-03-25T09:47:12;9.93;79.23
14154;DHT22;7157;53.144;7.570;2024-03-25T09:57:15;9.85;75.86
14154;DHT22;7157;53.144;7.570;2024-03-25T10:07:21;9.75;77.17
14154;DHT22;7157;53.144;7.570;2024-03-25T10:17:24;10.31;76.31
14154;DHT22;7157;53.144;7.570;2024-03-25T10:27:25;10.84;68.78
14154;DHT22;7157;53.144;7.570;2024-03-25T10:37:28;11.20;68.26
14154;DHT22;7157;53.144;7.570;2024-03-25T10:47:30;10.57;71.06
14154;DHT22;7157;53.144;7.570;2024-03-25T10:57:33;10.16;73.25
14154;DHT22;7157;53.144;7.570;2024-03-25T11:07:34;11.38;69.20
14154;DHT22;7157;53.144;7.570;2024-03-25T11:17:37;12.95;63.76
14154;DHT22;7157;53.144;7.570;2024-03-25T11:27:48;11.86;63.73
14154;DHT22;7157;53.144;7.570;2024-03-25T11:37:52;11.55;64.58
14154;DHT22;7157;53.144;7.570;2024-03-25T11:47:53;9.54;83.74
14154;DHT22;7157;53.144;7.570;2024-03-25T11:57:59;13.88;68.23
14154;DHT22;7157;53.144;7.570;2024-03-25T12:08:00;26.70;32.85
14154;DHT22;7157;53.144;7.570;2024-03-25T12:18:03;31.21;24.60
14154;DHT22;7157;53.144;7.570;2024-03-25T12:28:08;29.36;20.64
14154;DHT22;7157;53.144;7.570;2024-03-25T12:38:10;28.43;22.00
14154;DHT22;7157;53.144;7.570;2024-03-25T12:48:21;25.39;26.29
14154;DHT22;7157;53.144;7.570;2024-03-25T12:58:23;17.04;43.50
14154;DHT22;7157;53.144;7.570;2024-03-25T13:08:25;15.86;46.19
14154;DHT22;7157;53.144;7.570;2024-03-25T13:18:28;16.70;45.39
14154;DHT22;7157;53.144;7.570;2024-03-25T13:28:29;20.72;39.05
14154;DHT22;7157;53.144;7.570;2024-03-25T13:38:31;22.32;33.99
14154;DHT22;7157;53.144;7.570;2024-03-25T13:48:32;20.68;36.72
14154;DHT22;7157;53.144;7.570;2024-03-25T13:58:35;18.77;39.79
14154;DHT22;7157;53.144;7.570;2024-03-25T14:08:36;16.47;45.57
14154;DHT22;7157;53.144;7.570;2024-03-25T14:18:39;14.15;49.53
14154;DHT22;7157;53.144;7.570;2024-03-25T14:28:40;13.51;52.51
14154;DHT22;7157;53.144;7.570;2024-03-25T14:38:43;14.40;49.02
14154;DHT22;7157;53.144;7.570;2024-03-25T14:48:44;15.71;47.28
14154;DHT22;7157;53.144;7.570;2024-03-25T14:58:46;17.41;45.90
14154;DHT22;7157;53.144;7.570;2024-03-25T15:08:47;18.41;42.33
14154;DHT22;7157;53.144;7.570;2024-03-25T15:18:50;20.30;37.98
14154;DHT22;7157;53.144;7.570;2024-03-25T15:28:52;19.94;36.69
14154;DHT22;7157;53.144;7.570;2024-03-25T15:38:54;18.22;40.20
14154;DHT22;7157;53.144;7.570;2024-03-25T15:48:55;18.03;39.57
14154;DHT22;7157;53.144;7.570;2024-03-25T15:58:57;16.67;43.04
14154;DHT22;7157;53.144;7.570;2024-03-25T16:08:58;16.94;42.50
14154;DHT22;7157;53.144;7.570;2024-03-25T16:19:00;17.37;41.75
14154;DHT22;7157;53.144;7.570;2024-03-25T16:29:01;16.39;44.24
14154;DHT22;7157;53.144;7.570;2024-03-25T16:39:04;16.04;45.07
14154;DHT22;7157;53.144;7.570;2024-03-25T16:49:05;15.47;45.97
14154;DHT22;7157;53.144;7.570;2024-03-25T16:59:08;14.15;51.01
14154;DHT22;7157;53.144;7.570;2024-03-25T17:09:09;13.07;53.52
14154;DHT22;7157;53.144;7.570;2024-03-25T17:19:11;12.62;56.11
14154;DHT22;7157;53.144;7.570;2024-03-25T17:29:12;11.93;58.96
14154;DHT22;7157;53.144;7.570;2024-03-25T17:39:15;11.69;60.04
14154;DHT22;7157;53.144;7.570;2024-03-25T17:49:16;11.30;61.92
14154;DHT22;7157;53.144;7.570;2024-03-25T17:59:18;10.97;63.82
14154;DHT22;7157;53.144;7.570;2024-03-25T18:09:19;10.51;65.43
14154;DHT22;7157;53.144;7.570;2024-03-25T18:19:21;10.22;66.79
14154;DHT22;7157;53.144;7.570;2024-03-25T18:29:23;10.04;68.53
14154;DHT22;7157;53.144;7.570;2024-03-25T18:39:25;9.86;71.12
14154;DHT22;7157;53.144;7.570;2024-03-25T18:49:26;9.50;73.95
14154;DHT22;7157;53.144;7.570;2024-03-25T18:59:28;9.31;74.35
14154;DHT22;7157;53.144;7.570;2024-03-25T19:09:29;8.97;76.53
14154;DHT22;7157;53.144;7.570;2024-03-25T19:19:31;8.81;76.60
14154;DHT22;7157;53.144;7.570;2024-03-25T19:29:32;8.49;78.59
14154;DHT22;7157;53.144;7.570;2024-03-25T19:39:35;8.41;80.78
14154;DHT22;7157;53.144;7.570;2024-03-25T19:49:36;8.29;81.79
14154;DHT22;7157;53.144;7.570;2024-03-25T19:59:38;8.18;83.42
14154;DHT22;7157;53.144;7.570;2024-03-25T20:09:39;7.92;86.09
14154;DHT22;7157;53.144;7.570;2024-03-25T20:19:42;7.76;89.76
14154;DHT22;7157;53.144;7.570;2024-03-25T20:29:43;7.56;93.33
14154;DHT22;7157;53.144;7.570;2024-03-25T20:39:45;7.53;93.53
14154;DHT22;7157;53.144;7.570;2024-03-25T20:49:46;7.47;95.36
14154;DHT22;7157;53.144;7.570;2024-03-25T20:59:48;7.35;97.84
14154;DHT22;7157;53.144;7.570;2024-03-25T21:09:49;7.18;99.50
14154;DHT22;7157;53.144;7.570;2024-03-25T21:19:52;7.24;99.00
14154;DHT22;7157;53.144;7.570;2024-03-25T21:29:52;7.17;99.36
14154;DHT22;7157;53.144;7.570;2024-03-25T21:39:55;7.10;99.55
14154;DHT22;7157;53.144;7.570;2024-03-25T21:49:56;7.08;99.48
14154;DHT22;7157;53.144;7.570;2024-03-25T21:59:59;6.94;99.50
14154;DHT22;7157;53.144;7.570;2024-03-25T22:10:00;6.91;99.48
14154;DHT22;7157;53.144;7.570;2024-03-25T22:20:02;6.74;100.64
14154;DHT22;7157;53.144;7.570;2024-03-25T22:30:04;6.70;101.41
14154;DHT22;7157;53.144;7.570;2024-03-25T22:40:08;6.74;101.06
14154;DHT22;7157;53.144;7.570;2024-03-25T22:50:10;6.67;100.41
14154;DHT22;7157;53.144;7.570;2024-03-25T23:00:14;6.48;101.37
14154;DHT22;7157;53.144;7.570;2024-03-25T23:10:15;6.49;101.75
14154;DHT22;7157;53.144;7.570;2024-03-25T23:20:17;6.39;102.26
14154;DHT22;7157;53.144;7.570;2024-03-25T23:30:18;6.30;102.49
14154;DHT22;7157;53.144;7.570;2024-03-25T23:40:21;6.25;102.16
14154;DHT22;7157;53.144;7.570;2024-03-25T23:50:22;6.14;101.99
